A- A+ FrançaisEnglishEspañol中国

Services sur Internet Soldes sur Internet Des idées de cadeaux Météo Météo aéro

La météo à : Autours de vous Mont-De-Marsan Tarbes-Lourdes-PyrénéesGrenoble-Le-Versoud Rion-Des-Landes

La météo aéronautique pour les pilotes, la préparation du vol avec les METAR (METeorological Aerodrome Report, message d'observation des conditions météorologiques pour l'aviation) et Les TAF (Terminal Aerodrome Forecast : message de prévision à court terme des conditions météorologiques pour l'aviation). Et les autres ressources comme les VAC (Visual Approch Chart) et les NOTAM (Notice To Airman) pour préprer les vols.

Aéroport Accra Kotoka Intl (Ghana) / OACI DGAA/ IATA ACC

L'altitude de l'aéroport Accra Kotoka Intl est de 62 m = 203 ft. Il est situé à proximité de Accra (Ghana). La météo générale à 5 jours est disponible pour Accra situé à 6.4 km.

METAR de l'aéroport Accra Kotoka Intl - DGAA

DGAA 071900Z 22011KT CAVOK 28/25 Q1010 NOSIG

Décodage du METAR de l'aéroport Accra Kotoka Intl (GH)

METAR émis par DGAA le samedi 7 décembre 2019 à 19:00 heure TU, il y a 24 minutes.

La visibilité est de supérieure à 10 km = supérieure à 6.2 sm.

La température est de 28°C = 82 °F et le point rosée est de 25°C = 77 °F . Ce qui correspond à 84% d'humidité relative.

Le QNH est de 1010 hPa = 29.83 inHg

Vent de 11 kt = 20 km/h, orienté à 220°.

Pas de nuages.

Aucun changement significatif dans les deux heures à venir

TAF de l'aéroport Accra Kotoka Intl - DGAA

DGAA 071700Z 0718/0824 19012KT 9999 FEW025 BECMG 0723/0801 26007KT PROB40 0806/0809 5000 BR BECMG 0810/0812 20010KT

DGAA 071700Z 0718/0824 19012KT 9999 quelques nuages à 025 devenant 0723/0801 26007KT probabilité de 40% d'avoir 0806/0809 5000 brume devenant 0810/0812 20010KT

Aéroport à proximité de Accra Kotoka Intl

Météo générale à 5 jours à Accra (6.4 km)Aéroport Lome Tokoin (169 km)Aéroport Takoradi (195 km)Aéroport Kumasi (200 km)Aéroport Atakpame Akpaka (262 km)Aéroport Anie Kolokope (292 km)Aéroport Cotonou (294 km)

VAC de l'aéroport Accra Kotoka Intl - DGAA

La carte d'approche à vue (VAC Visual Approah Chart) est fournie sans aucune garantie de son actualité. Le pilote est le seul responsable de la vérification de sa validité avant de l'utiliser opérationnellement pour préparer un vol ou l'utiliser lors de sa navigation.

VAC de DGAA

Vue aérienne de l'aéroport Accra Kotoka Intl

NOTAM de l'aéroport Accra Kotoka Intl

Les NOTAM sont fournis sans aucune garantie de leur actualité. Le pilote est le seul responsable de la vérification de sa validité avant de l'utiliser opérationnellement pour préparer un vol ou l'utiliser lors de sa navigation.

Pas de NOTAM

Sources des données